AI4ZL Weather Reports


time (UTC)temp
F
wind
direction
speed
knots
gust
knots
rain 1hr
in
rain 24hr
in
rain mn
in
humidity
%
barometer
mb
20220812004051 80 143 0.0 0.9 0.00 0.00 0.00 70 1019.2
20220812003141 81 0.0 0.0 0.00 0.00 0.00 69 1019.1
20220812002131 82 0.0 0.0 0.00 0.00 0.00 66 1019.2
20220812001121 83 0.0 0.9 0.00 0.00 0.00 64 1019.0
20220812000212 83 125 0.0 0.9 0.00 0.00 0.00 62 1018.9
20220811235102 84 179 0.0 0.9 0.00 0.00 0.00 62 1018.9
20220811234052 84 150 0.9 1.7 0.00 0.00 0.00 61 1018.9
20220811233042 84 134 0.0 1.7 0.00 0.00 0.00 62 1018.8
20220811232032 85 177 0.9 2.6 0.00 0.00 0.00 61 1018.8
20220811231022 86 320 1.7 3.5 0.00 0.00 0.00 60 1018.7
20220811230113 87 301 1.7 3.5 0.00 0.00 0.00 58 1018.9
20220811225103 87 341 1.7 2.6 0.00 0.00 0.00 59 1018.8
20220811224053 88 350 1.7 6.1 0.00 0.00 0.00 57 1018.9
20220811223043 89 152 0.9 1.7 0.00 0.00 0.00 55 1018.9
20220811222033 88 316 0.9 2.6 0.00 0.00 0.00 56 1018.8
20220811221023 90 129 0.9 1.7 0.00 0.00 0.00 54 1018.8
20220811220114 91 344 0.9 2.6 0.00 0.00 0.00 53 1018.7
20220811215104 90 300 0.9 2.6 0.00 0.00 0.00 53 1018.8
20220811214134 90 201 0.9 2.6 0.00 0.00 0.00 53 1018.8
20220811213144 89 344 1.7 5.2 0.00 0.00 0.00 55 1018.9
20220811212134 91 214 0.9 2.6 0.00 0.00 0.00 52 1018.9
20220811211124 89 250 0.9 1.7 0.00 0.00 0.00 56 1019.0
20220811205104 91 154 0.0 1.7 0.00 0.00 0.00 52 1019.2
20220811204054 89 290 0.9 1.7 0.00 0.00 0.00 55 1019.1
20220811203044 90 259 0.9 1.7 0.00 0.00 0.00 54 1019.2
20220811202034 90 155 0.9 1.7 0.00 0.00 0.00 54 1019.1
20220811201104 90 244 1.7 2.6 0.00 0.00 0.00 54 1019.4
20220811200115 92 181 0.9 1.7 0.00 0.00 0.00 52 1019.4
20220811193145 91 111 0.9 3.5 0.00 0.00 0.00 53 1019.7
20220811192035 90 300 0.9 3.5 0.00 0.00 0.00 53 1019.8
20220811191045 91 325 0.9 2.6 0.00 0.00 0.00 53 1019.9
20220811190116 90 14 0.9 3.5 0.00 0.00 0.00 54 1020.1
20220811185106 91 213 0.9 2.6 0.00 0.00 0.00 54 1020.3
20220811184056 89 142 0.9 1.7 0.00 0.00 0.00 57 1020.3
20220811183046 89 309 1.7 2.6 0.00 0.00 0.00 57 1020.4
20220811182036 86 332 0.9 2.6 0.00 0.00 0.00 58 1020.5
20220811181028 87 131 0.0 2.6 0.00 0.00 0.00 58 1020.5
20220811180117 87 280 0.9 2.6 0.00 0.00 0.00 59 1020.7
20220811175107 88 98 0.9 2.6 0.00 0.00 0.00 60 1020.8
20220811174057 88 114 0.9 2.6 0.00 0.00 0.00 58 1020.7
20220811173107 87 294 0.9 2.6 0.00 0.00 0.00 60 1020.8
20220811172036 85 313 0.0 1.7 0.00 0.00 0.00 63 1020.9
20220811171028 86 243 0.9 1.7 0.00 0.00 0.00 61 1021.0
20220811170016 85 151 0.9 1.7 0.00 0.00 0.00 64 1021.0
20220811165107 84 314 0.9 1.7 0.00 0.00 0.00 64 1021.2
20220811164057 87 300 0.9 2.6 0.00 0.00 0.00 60 1021.2
20220811163047 87 165 0.9 2.6 0.00 0.00 0.00 63 1021.2
20220811162038 86 60 0.9 2.6 0.00 0.00 0.00 61 1021.1
20220811161027 86 342 1.7 2.6 0.00 0.00 0.00 62 1021.2
20220811160017 86 176 0.9 1.7 0.00 0.00 0.00 63 1021.2
20220811155108 85 240 0.9 2.6 0.00 0.00 0.00 64 1021.3
20220811154058 86 289 0.9 3.5 0.00 0.00 0.00 64 1021.2
20220811153048 85 103 0.9 2.6 0.00 0.00 0.00 64 1021.2
20220811152058 84 158 0.0 2.6 0.00 0.00 0.00 66 1021.2
20220811151048 83 2 1.7 2.6 0.00 0.00 0.00 67 1021.2
20220811150038 82 126 0.9 1.7 0.00 0.00 0.00 69 1021.1
20220811145149 82 354 0.9 2.6 0.00 0.00 0.00 70 1021.1
20220811144119 81 313 0.9 1.7 0.00 0.00 0.00 71 1021.0
20220811143049 81 51 0.9 1.7 0.00 0.00 0.00 72 1021.0
20220811142039 79 317 0.9 1.7 0.00 0.00 0.00 73 1021.0
20220811141029 79 14 0.9 1.7 0.00 0.00 0.00 73 1021.0
20220811140039 79 137 0.9 1.7 0.00 0.00 0.00 73 1021.0
20220811135110 77 9 0.9 2.6 0.00 0.00 0.00 76 1021.0
20220811134100 77 45 0.9 1.7 0.00 0.00 0.00 76 1021.1
20220811133050 77 142 0.0 0.9 0.00 0.00 0.00 77 1021.1
20220811132040 75 114 0.0 1.7 0.00 0.00 0.00 80 1021.1
20220811131031 74 17 0.9 1.7 0.00 0.00 0.00 82 1021.2
20220811130020 73 16 0.9 1.7 0.00 0.00 0.00 83 1021.1
20220811125110 73 153 0.0 0.9 0.00 0.00 0.00 84 1021.0
20220811124101 72 47 0.0 0.9 0.00 0.00 0.00 86 1020.9
20220811123050 70 0.0 0.9 0.00 0.00 0.00 90 1020.8
20220811122041 68 240 0.0 0.9 0.00 0.00 0.00 93 1021.0
20220811121030 68 0.0 0.0 0.00 0.00 0.00 94 1020.6
20220811120020 67 167 0.0 0.9 0.00 0.00 0.00 95 1020.5
20220811115114 67 6 0.0 0.9 0.00 0.00 0.00 96 1020.5
20220811114101 67 49 0.0 0.9 0.00 0.00 0.00 97 1020.6
20220811113051 66 98 0.0 0.9 0.00 0.00 0.00 97 1020.4
20220811112101 66 0.0 0.0 0.00 0.00 0.00 97 1020.3
20220811111031 66 0.0 0.0 0.00 0.00 0.00 97 1020.4
20220811110021 66 0.0 0.0 0.00 0.00 0.00 97 1020.4
20220811105112 67 0.0 0.9 0.00 0.00 0.00 96 1020.3
20220811104122 67 0.0 0.9 0.00 0.00 0.00 96 1020.4
20220811103152 67 220 0.0 0.9 0.00 0.00 0.00 95 1020.2
20220811102142 67 0.0 0.0 0.00 0.00 0.00 94 1020.1
20220811101212 68 0.0 0.0 0.00 0.00 0.00 93 1020.1
20220811100202 68 0.0 0.0 0.00 0.00 0.00 93 1020.2
20220811095213 68 123 0.0 0.9 0.00 0.00 0.00 93 1020.2
20220811094203 68 0.0 0.0 0.00 0.00 0.00 92 1020.3
20220811093153 68 79 0.0 0.9 0.00 0.00 0.00 93 1020.1
20220811092149 67 55 0.0 0.9 0.00 0.00 0.00 95 1020.2
20220811091033 67 26 0.0 0.9 0.00 0.00 0.00 97 1020.2
20220811090023 66 0.0 0.0 0.00 0.00 0.00 97 1020.3
20220811085114 66 0.0 0.0 0.00 0.00 0.00 97 1020.1
20220811084104 66 0.0 0.0 0.00 0.00 0.00 97 1020.2
20220811083134 66 0.0 0.9 0.00 0.00 0.00 97 1020.2
20220811082143 66 0.0 0.9 0.00 0.00 0.00 97 1020.4
20220811081133 66 0.0 0.0 0.00 0.00 0.00 97 1020.5
20220811080124 66 0.0 0.0 0.00 0.00 0.00 97 1020.5
20220811075215 66 0.0 0.0 0.00 0.00 0.00 97 1020.5
20220811074124 67 0.0 0.0 0.00 0.00 0.00 97 1020.4
20220811073114 67 0.0 0.0 0.00 0.00 0.00 97 1020.4
20220811072124 67 0.0 0.0 0.00 0.00 0.00 96 1020.5
20220811071054 67 0.0 0.0 0.00 0.00 0.00 96 1020.6
20220811070044 67 0.0 0.0 0.00 0.00 0.00 96 1020.6
20220811065135 68 0.0 0.0 0.00 0.00 0.00 96 1020.7
20220811064125 68 0.0 0.0 0.00 0.00 0.00 96 1020.6
20220811063115 68 164 0.0 0.9 0.00 0.00 0.00 95 1020.7
20220811062106 68 0.0 0.0 0.00 0.00 0.00 94 1020.6
20220811061035 69 286 0.0 0.9 0.00 0.00 0.00 93 1020.5
20220811060025 69 0.0 0.9 0.00 0.00 0.00 93 1020.5
20220811055116 70 0.0 0.0 0.00 0.00 0.00 92 1020.6
20220811054106 70 0.0 0.0 0.00 0.00 0.00 92 1020.5
20220811053057 71 0.0 0.0 0.00 0.00 0.00 91 1020.5
20220811052046 72 0.0 0.0 0.00 0.00 0.00 90 1020.6
20220811051036 72 323 0.0 0.9 0.00 0.00 0.00 90 1020.6
20220811050026 72 0.0 0.0 0.00 0.00 0.00 91 1020.6
20220811045117 72 0.0 0.0 0.00 0.00 0.00 91 1020.7
20220811044107 72 0.0 0.0 0.00 0.00 0.00 90 1020.7
20220811043117 73 0.0 0.9 0.00 0.00 0.00 90 1020.7
20220811042107 73 0.0 0.9 0.00 0.00 0.00 89 1020.5
20220811041057 74 37 0.0 1.7 0.00 0.00 0.00 90 1020.5
20220811040046 73 340 0.9 0.9 0.00 0.00 0.00 91 1020.6
20220811035138 73 260 0.9 0.9 0.00 0.00 0.00 93 1020.8
20220811034127 73 0.0 0.9 0.00 0.00 0.00 94 1020.9
20220811033117 72 184 0.0 0.9 0.00 0.00 0.00 95 1020.9
20220811032107 72 183 0.0 0.9 0.00 0.01 0.00 94 1020.9
20220811031057 72 0.0 0.9 0.00 0.02 0.00 95 1021.1
20220811030047 72 0.0 0.0 0.00 0.02 0.00 94 1021.0
20220811025037 72 0.0 0.0 0.00 0.02 0.00 94 1020.9
20220811024128 72 0.0 0.9 0.00 0.02 0.00 93 1020.8
20220811023118 73 0.0 0.0 0.00 0.02 0.00 93 1020.9
20220811022108 73 0.0 0.0 0.00 0.02 0.00 91 1020.7
20220811021038 73 253 0.0 0.9 0.00 0.02 0.00 91 1020.6
20220811020028 73 297 0.0 0.9 0.00 0.02 0.00 93 1020.6
20220811015018 73 90 0.0 0.9 0.00 0.02 0.00 92 1020.3
20220811014109 74 0.0 0.0 0.00 0.02 0.00 90 1020.4
20220811013059 74 90 0.0 0.9 0.00 0.02 0.00 89 1020.1
20220811012049 74 0.0 0.0 0.00 0.02 0.00 88 1020.1
20220811011039 76 0.0 0.0 0.00 0.02 0.00 85 1020.0
20220811010029 76 0.0 0.0 0.00 0.02 0.00 84 1019.9
20220811005019 77 82 0.0 0.9 0.00 0.02 0.00 82 1019.8